WXM80 ListenWXM80 Stop

You find our weather info also at:

UK Metoffice

WeatherCloud

Weather Underground

Northeastern Weather Network

AWEKAS

Citizen Weather Observer Program (CWOP)

HAMweather, WeatherForYou, PWS Weather


Weather Underground History page Text

Daily Summary for June 20, 2017 Units:  Both    English   Metric
« Previous Day
Next Day »
Daily Weekly Monthly Yearly Custom
  High: Low: Average:
Temperature: 89.0 °F /  31.7 °C 69.3 °F /  20.7 °C 77.3 °F /  25.2 °C
Dew Point: 72.8 °F /  22.7 °C 57.0 °F /  13.9 °C 65.1 °F /  18.4 °C
Humidity: 98 % 36 % 70 %
Wind Speed: 8.8 mph /  14.2 km/h - 2.4 mph /  3.9 km/h
Wind Gust: 16.1 mph /  25.9 km/h - -
Wind:- - WSW
Pressure: 29.91 in /  1012.8 hPa 29.78 in /  1008.4 hPa -
Precipitation: 0.02 in /  0.51 mm    
Historical Graphs
 
 
Tabular Data for June 20, 2017
Time Temperature Dew Point Pressure Wind Wind Speed Wind Gust Humidity Rainfall Rate (Hourly)
00:01 69.3 °F /  20.7 °C 68.4 °F /  20.2 °C 29.84 in /  1010.4 hPa SSW 1.3 mph /  2.1 km/h 3.0 mph /  4.8 km/h 97 % 0.00 in /  0 mm
00:07 69.3 °F /  20.7 °C 68.4 °F /  20.2 °C 29.84 in /  1010.4 hPa South 1.8 mph /  2.9 km/h 6.9 mph /  11.1 km/h 97 % 0.00 in /  0 mm
00:11 69.3 °F /  20.7 °C 68.4 °F /  20.2 °C 29.84 in /  1010.4 hPa South 0.3 mph /  0.5 km/h 3.5 mph /  5.6 km/h 97 % 0.00 in /  0 mm
00:17 69.3 °F /  20.7 °C 68.4 °F /  20.2 °C 29.84 in /  1010.4 hPa SSE 2.0 mph /  3.2 km/h 4.6 mph /  7.4 km/h 97 % 0.00 in /  0 mm
00:22 69.3 °F /  20.7 °C 68.4 °F /  20.2 °C 29.84 in /  1010.4 hPa South 0.8 mph /  1.3 km/h 4.6 mph /  7.4 km/h 97 % 0.00 in /  0 mm
00:27 69.3 °F /  20.7 °C 68.4 °F /  20.2 °C 29.82 in /  1009.7 hPa SW 4.3 mph /  6.9 km/h 11.5 mph /  18.5 km/h 97 % 0.00 in /  0 mm
00:32 69.4 °F /  20.8 °C 68.5 °F /  20.3 °C 29.82 in /  1009.7 hPa SW 1.2 mph /  1.9 km/h 3.5 mph /  5.6 km/h 97 % 0.00 in /  0 mm
00:37 69.4 °F /  20.8 °C 68.5 °F /  20.3 °C 29.82 in /  1009.7 hPa SW 0.6 mph /  1 km/h 3.5 mph /  5.6 km/h 97 % 0.00 in /  0 mm
00:42 69.4 °F /  20.8 °C 68.5 °F /  20.3 °C 29.82 in /  1009.7 hPa SW 2.2 mph /  3.5 km/h 4.6 mph /  7.4 km/h 97 % 0.00 in /  0 mm
00:47 69.4 °F /  20.8 °C 68.5 °F /  20.3 °C 29.81 in /  1009.4 hPa SW 0.3 mph /  0.5 km/h 3.5 mph /  5.6 km/h 97 % 0.00 in /  0 mm
00:52 69.4 °F /  20.8 °C 68.5 °F /  20.3 °C 29.81 in /  1009.4 hPa SSE 1.1 mph /  1.8 km/h 3.5 mph /  5.6 km/h 97 % 0.00 in /  0 mm
00:57 69.4 °F /  20.8 °C 68.5 °F /  20.3 °C 29.81 in /  1009.4 hPa South 1.3 mph /  2.1 km/h 3.5 mph /  5.6 km/h 97 % 0.01 in /  0.25 mm
01:02 69.4 °F /  20.8 °C 68.5 °F /  20.3 °C 29.81 in /  1009.4 hPa SSW 0.1 mph /  0.2 km/h 1.2 mph /  1.9 km/h 97 % 0.01 in /  0.25 mm
01:07 69.5 °F /  20.8 °C 68.6 °F /  20.3 °C 29.81 in /  1009.4 hPa South 0.3 mph /  0.5 km/h 3.5 mph /  5.6 km/h 97 % 0.01 in /  0.25 mm
01:12 69.5 °F /  20.8 °C 68.6 °F /  20.3 °C 29.81 in /  1009.4 hPa SE 1.1 mph /  1.8 km/h 4.6 mph /  7.4 km/h 97 % 0.01 in /  0.25 mm
01:17 69.6 °F /  20.9 °C 68.7 °F /  20.4 °C 29.81 in /  1009.4 hPa South 1.7 mph /  2.7 km/h 3.0 mph /  4.8 km/h 97 % 0.01 in /  0.25 mm
01:22 69.6 °F /  20.9 °C 68.7 °F /  20.4 °C 29.81 in /  1009.4 hPa SE 1.4 mph /  2.3 km/h 3.5 mph /  5.6 km/h 97 % 0.01 in /  0.25 mm
01:27 69.7 °F /  20.9 °C 68.8 °F /  20.4 °C 29.80 in /  1009 hPa WSW 1.9 mph /  3.1 km/h 4.0 mph /  6.4 km/h 97 % 0.01 in /  0.25 mm
01:32 69.7 °F /  20.9 °C 68.8 °F /  20.4 °C 29.80 in /  1009 hPa SSW 1.4 mph /  2.3 km/h 5.0 mph /  8 km/h 97 % 0.01 in /  0.25 mm
01:38 69.7 °F /  20.9 °C 68.8 °F /  20.4 °C 29.80 in /  1009 hPa SW 1.4 mph /  2.3 km/h 5.8 mph /  9.3 km/h 97 % 0.01 in /  0.25 mm
01:43 69.7 °F /  20.9 °C 68.8 °F /  20.4 °C 29.80 in /  1009 hPa SW 2.1 mph /  3.4 km/h 6.9 mph /  11.1 km/h 97 % 0.01 in /  0.25 mm
01:48 69.8 °F /  21 °C 68.9 °F /  20.5 °C 29.80 in /  1009 hPa SW 1.1 mph /  1.8 km/h 3.5 mph /  5.6 km/h 97 % 0.01 in /  0.25 mm
01:53 69.8 °F /  21 °C 68.9 °F /  20.5 °C 29.80 in /  1009 hPa SSW 1.3 mph /  2.1 km/h 4.6 mph /  7.4 km/h 97 % 0.01 in /  0.25 mm
01:58 69.8 °F /  21 °C 68.9 °F /  20.5 °C 29.80 in /  1009 hPa WSW 0.9 mph /  1.4 km/h 3.5 mph /  5.6 km/h 97 % 0.00 in /  0 mm
02:03 69.8 °F /  21 °C 68.9 °F /  20.5 °C 29.80 in /  1009 hPa SW 0.3 mph /  0.5 km/h 3.0 mph /  4.8 km/h 97 % 0.00 in /  0 mm
02:08 69.8 °F /  21 °C 68.9 °F /  20.5 °C 29.80 in /  1009 hPa WSW 2.3 mph /  3.7 km/h 6.9 mph /  11.1 km/h 97 % 0.00 in /  0 mm
02:13 69.8 °F /  21 °C 68.9 °F /  20.5 °C 29.80 in /  1009 hPa SSW 2.9 mph /  4.7 km/h 4.0 mph /  6.4 km/h 97 % 0.00 in /  0 mm
02:18 69.8 °F /  21 °C 68.9 °F /  20.5 °C 29.80 in /  1009 hPa Calm   1.2 mph /  1.9 km/h 97 % 0.00 in /  0 mm
02:23 69.8 °F /  21 °C 68.9 °F /  20.5 °C 29.80 in /  1009 hPa SSW 0.4 mph /  0.6 km/h 2.3 mph /  3.7 km/h 97 % 0.00 in /  0 mm
02:28 69.8 °F /  21 °C 68.9 °F /  20.5 °C 29.80 in /  1009 hPa SSW 0.3 mph /  0.5 km/h 2.3 mph /  3.7 km/h 97 % 0.00 in /  0 mm
02:33 69.8 °F /  21 °C 68.9 °F /  20.5 °C 29.80 in /  1009 hPa SSW 1.1 mph /  1.8 km/h 3.5 mph /  5.6 km/h 97 % 0.00 in /  0 mm
02:38 69.8 °F /  21 °C 68.9 °F /  20.5 °C 29.81 in /  1009.4 hPa South 0.3 mph /  0.5 km/h 3.5 mph /  5.6 km/h 97 % 0.00 in /  0 mm
02:43 69.8 °F /  21 °C 68.9 °F /  20.5 °C 29.81 in /  1009.4 hPa SSW 3.3 mph /  5.3 km/h 3.5 mph /  5.6 km/h 97 % 0.00 in /  0 mm
02:48 69.8 °F /  21 °C 68.9 °F /  20.5 °C 29.81 in /  1009.4 hPa SSW 1.6 mph /  2.6 km/h 3.5 mph /  5.6 km/h 97 % 0.00 in /  0 mm
02:53 69.7 °F /  20.9 °C 68.8 °F /  20.4 °C 29.81 in /  1009.4 hPa WSW 0.1 mph /  0.2 km/h 1.2 mph /  1.9 km/h 97 % 0.00 in /  0 mm
02:59 69.7 °F /  20.9 °C 68.8 °F /  20.4 °C 29.81 in /  1009.4 hPa SW 0.9 mph /  1.4 km/h 3.5 mph /  5.6 km/h 97 % 0.01 in /  0.25 mm
03:04 69.6 °F /  20.9 °C 68.7 °F /  20.4 °C 29.80 in /  1009 hPa SSW 1.7 mph /  2.7 km/h 3.5 mph /  5.6 km/h 97 % 0.01 in /  0.25 mm
03:09 69.6 °F /  20.9 °C 68.7 °F /  20.4 °C 29.80 in /  1009 hPa SW 0.9 mph /  1.4 km/h 3.5 mph /  5.6 km/h 97 % 0.01 in /  0.25 mm
03:14 69.6 °F /  20.9 °C 68.7 °F /  20.4 °C 29.80 in /  1009 hPa NW 1.4 mph /  2.3 km/h 3.5 mph /  5.6 km/h 97 % 0.01 in /  0.25 mm
03:19 69.6 °F /  20.9 °C 68.7 °F /  20.4 °C 29.80 in /  1009 hPa WSW 1.9 mph /  3.1 km/h 4.0 mph /  6.4 km/h 97 % 0.01 in /  0.25 mm
03:24 69.6 °F /  20.9 °C 68.7 °F /  20.4 °C 29.80 in /  1009 hPa SW 1.0 mph /  1.6 km/h 6.9 mph /  11.1 km/h 97 % 0.01 in /  0.25 mm
03:29 69.6 °F /  20.9 °C 68.7 °F /  20.4 °C 29.80 in /  1009 hPa WSW 1.1 mph /  1.8 km/h 4.6 mph /  7.4 km/h 97 % 0.01 in /  0.25 mm
03:34 69.6 °F /  20.9 °C 68.7 °F /  20.4 °C 29.80 in /  1009 hPa SW 1.5 mph /  2.4 km/h 4.6 mph /  7.4 km/h 97 % 0.01 in /  0.25 mm
03:39 69.6 °F /  20.9 °C 68.7 °F /  20.4 °C 29.79 in /  1008.7 hPa SW 0.3 mph /  0.5 km/h 6.9 mph /  11.1 km/h 97 % 0.01 in /  0.25 mm
03:44 69.7 °F /  20.9 °C 68.8 °F /  20.4 °C 29.80 in /  1009 hPa SW 1.4 mph /  2.3 km/h 4.0 mph /  6.4 km/h 97 % 0.01 in /  0.25 mm
03:49 69.7 °F /  20.9 °C 68.8 °F /  20.4 °C 29.79 in /  1008.7 hPa WSW 0.7 mph /  1.1 km/h 2.0 mph /  3.2 km/h 97 % 0.01 in /  0.25 mm
03:54 69.7 °F /  20.9 °C 69.1 °F /  20.6 °C 29.80 in /  1009 hPa SW 0.1 mph /  0.2 km/h 3.5 mph /  5.6 km/h 98 % 0.01 in /  0.25 mm
03:59 69.7 °F /  20.9 °C 69.1 °F /  20.6 °C 29.80 in /  1009 hPa WSW 0.4 mph /  0.6 km/h 3.5 mph /  5.6 km/h 98 % 0.00 in /  0 mm
04:04 69.8 °F /  21 °C 69.2 °F /  20.7 °C 29.80 in /  1009 hPa WSW 0.8 mph /  1.3 km/h 2.3 mph /  3.7 km/h 98 % 0.00 in /  0 mm
04:09 69.8 °F /  21 °C 69.2 °F /  20.7 °C 29.80 in /  1009 hPa Calm     98 % 0.00 in /  0 mm
04:14 69.8 °F /  21 °C 69.2 °F /  20.7 °C 29.79 in /  1008.7 hPa SSW 1.3 mph /  2.1 km/h 3.5 mph /  5.6 km/h 98 % 0.00 in /  0 mm
04:19 69.9 °F /  21.1 °C 69.3 °F /  20.7 °C 29.79 in /  1008.7 hPa SSW 0.2 mph /  0.3 km/h 1.2 mph /  1.9 km/h 98 % 0.00 in /  0 mm
04:24 69.9 °F /  21.1 °C 69.3 °F /  20.7 °C 29.79 in /  1008.7 hPa Calm   3.5 mph /  5.6 km/h 98 % 0.00 in /  0 mm
04:29 69.9 °F /  21.1 °C 69.3 °F /  20.7 °C 29.79 in /  1008.7 hPa WSW 0.5 mph /  0.8 km/h 2.3 mph /  3.7 km/h 98 % 0.00 in /  0 mm
04:34 69.9 °F /  21.1 °C 69.3 °F /  20.7 °C 29.78 in /  1008.4 hPa SW 0.1 mph /  0.2 km/h 1.2 mph /  1.9 km/h 98 % 0.00 in /  0 mm
04:39 69.9 °F /  21.1 °C 69.3 °F /  20.7 °C 29.79 in /  1008.7 hPa WSW 0.8 mph /  1.3 km/h 3.5 mph /  5.6 km/h 98 % 0.00 in /  0 mm
04:44 69.9 °F /  21.1 °C 69.3 °F /  20.7 °C 29.79 in /  1008.7 hPa WSW 0.3 mph /  0.5 km/h 2.0 mph /  3.2 km/h 98 % 0.00 in /  0 mm
04:49 69.9 °F /  21.1 °C 69.3 °F /  20.7 °C 29.79 in /  1008.7 hPa WSW 0.2 mph /  0.3 km/h 2.0 mph /  3.2 km/h 98 % 0.00 in /  0 mm
04:54 69.9 °F /  21.1 °C 69.3 °F /  20.7 °C 29.79 in /  1008.7 hPa WSW 0.8 mph /  1.3 km/h 3.0 mph /  4.8 km/h 98 % 0.00 in /  0 mm
04:59 69.8 °F /  21 °C 69.2 °F /  20.7 °C 29.80 in /  1009 hPa WSW 2.2 mph /  3.5 km/h 2.3 mph /  3.7 km/h 98 % 0.00 in /  0 mm
05:05 69.9 °F /  21.1 °C 69.3 °F /  20.7 °C 29.80 in /  1009 hPa WSW 0.8 mph /  1.3 km/h   98 % 0.00 in /  0 mm
05:10 69.9 °F /  21.1 °C 69.3 °F /  20.7 °C 29.79 in /  1008.7 hPa Calm   1.2 mph /  1.9 km/h 98 % 0.00 in /  0 mm
05:15 69.9 °F /  21.1 °C 69.3 °F /  20.7 °C 29.80 in /  1009 hPa West 0.5 mph /  0.8 km/h 1.2 mph /  1.9 km/h 98 % 0.00 in /  0 mm
05:20 69.9 °F /  21.1 °C 69.3 °F /  20.7 °C 29.79 in /  1008.7 hPa Calm   2.3 mph /  3.7 km/h 98 % 0.00 in /  0 mm
05:25 69.9 °F /  21.1 °C 69.3 °F /  20.7 °C 29.80 in /  1009 hPa WSW 0.4 mph /  0.6 km/h 3.5 mph /  5.6 km/h 98 % 0.00 in /  0 mm
05:30 69.9 °F /  21.1 °C 69.3 °F /  20.7 °C 29.80 in /  1009 hPa SW 1.9 mph /  3.1 km/h 4.0 mph /  6.4 km/h 98 % 0.00 in /  0 mm
05:35 69.9 °F /  21.1 °C 69.3 °F /  20.7 °C 29.80 in /  1009 hPa WSW 0.5 mph /  0.8 km/h 3.5 mph /  5.6 km/h 98 % 0.00 in /  0 mm
05:40 69.9 °F /  21.1 °C 69.3 °F /  20.7 °C 29.80 in /  1009 hPa Calm   1.2 mph /  1.9 km/h 98 % 0.00 in /  0 mm
05:45 69.9 °F /  21.1 °C 69.3 °F /  20.7 °C 29.80 in /  1009 hPa SW 0.2 mph /  0.3 km/h 2.3 mph /  3.7 km/h 98 % 0.00 in /  0 mm
05:50 70.0 °F /  21.1 °C 69.4 °F /  20.8 °C 29.80 in /  1009 hPa SW 0.4 mph /  0.6 km/h 3.5 mph /  5.6 km/h 98 % 0.00 in /  0 mm
05:55 70.0 °F /  21.1 °C 69.4 °F /  20.8 °C 29.80 in /  1009 hPa WSW 0.5 mph /  0.8 km/h 3.5 mph /  5.6 km/h 98 % 0.00 in /  0 mm
06:00 70.1 °F /  21.2 °C 69.5 °F /  20.8 °C 29.80 in /  1009 hPa West 1.1 mph /  1.8 km/h 3.5 mph /  5.6 km/h 98 % 0.00 in /  0 mm
06:05 70.1 °F /  21.2 °C 69.5 °F /  20.8 °C 29.80 in /  1009 hPa WNW 0.2 mph /  0.3 km/h 1.2 mph /  1.9 km/h 98 % 0.00 in /  0 mm
06:10 70.1 °F /  21.2 °C 69.5 °F /  20.8 °C 29.80 in /  1009 hPa SSW 0.3 mph /  0.5 km/h 2.3 mph /  3.7 km/h 98 % 0.00 in /  0 mm
06:15 70.1 °F /  21.2 °C 69.5 °F /  20.8 °C 29.80 in /  1009 hPa NNW 0.1 mph /  0.2 km/h 1.2 mph /  1.9 km/h 98 % 0.00 in /  0 mm
06:20 70.1 °F /  21.2 °C 69.5 °F /  20.8 °C 29.80 in /  1009 hPa SW 1.8 mph /  2.9 km/h 5.8 mph /  9.3 km/h 98 % 0.00 in /  0 mm
06:25 70.2 °F /  21.2 °C 69.6 °F /  20.9 °C 29.80 in /  1009 hPa WSW 2.4 mph /  3.9 km/h 4.6 mph /  7.4 km/h 98 % 0.00 in /  0 mm
06:30 70.2 °F /  21.2 °C 69.6 °F /  20.9 °C 29.80 in /  1009 hPa West 0.4 mph /  0.6 km/h 2.3 mph /  3.7 km/h 98 % 0.00 in /  0 mm
06:35 70.2 °F /  21.2 °C 69.6 °F /  20.9 °C 29.80 in /  1009 hPa Calm     98 % 0.00 in /  0 mm
06:40 70.2 °F /  21.2 °C 69.6 °F /  20.9 °C 29.80 in /  1009 hPa Calm     98 % 0.00 in /  0 mm
06:45 70.2 °F /  21.2 °C 69.6 °F /  20.9 °C 29.81 in /  1009.4 hPa Calm     98 % 0.00 in /  0 mm
06:50 70.3 °F /  21.3 °C 69.7 °F /  20.9 °C 29.81 in /  1009.4 hPa Calm     98 % 0.00 in /  0 mm
06:54 70.3 °F /  21.3 °C 69.7 °F /  20.9 °C 29.81 in /  1009.4 hPa Calm     98 % 0.00 in /  0 mm
06:59 70.6 °F /  21.4 °C 70.0 °F /  21.1 °C 29.81 in /  1009.4 hPa SE 0.4 mph /  0.6 km/h 1.2 mph /  1.9 km/h 98 % 0.00 in /  0 mm
07:04 71.0 °F /  21.7 °C 70.4 °F /  21.3 °C 29.80 in /  1009 hPa SE 0.1 mph /  0.2 km/h 2.3 mph /  3.7 km/h 98 % 0.00 in /  0 mm
07:09 71.2 °F /  21.8 °C 70.6 °F /  21.4 °C 29.81 in /  1009.4 hPa Calm   1.2 mph /  1.9 km/h 98 % 0.00 in /  0 mm
07:14 71.5 °F /  21.9 °C 70.9 °F /  21.6 °C 29.81 in /  1009.4 hPa WSW 3.7 mph /  6 km/h 5.8 mph /  9.3 km/h 98 % 0.00 in /  0 mm
07:19 71.7 °F /  22.1 °C 71.1 °F /  21.7 °C 29.82 in /  1009.7 hPa SW 2.1 mph /  3.4 km/h 3.5 mph /  5.6 km/h 98 % 0.00 in /  0 mm
07:24 71.9 °F /  22.2 °C 71.3 °F /  21.8 °C 29.82 in /  1009.7 hPa SW 0.6 mph /  1 km/h 4.0 mph /  6.4 km/h 98 % 0.00 in /  0 mm
07:29 72.0 °F /  22.2 °C 71.4 °F /  21.9 °C 29.83 in /  1010 hPa WSW 3.1 mph /  5 km/h 4.0 mph /  6.4 km/h 98 % 0.00 in /  0 mm
07:34 72.1 °F /  22.3 °C 71.5 °F /  21.9 °C 29.83 in /  1010 hPa WSW 3.0 mph /  4.8 km/h 4.6 mph /  7.4 km/h 98 % 0.00 in /  0 mm
07:39 72.2 °F /  22.3 °C 71.6 °F /  22 °C 29.83 in /  1010 hPa SW 1.5 mph /  2.4 km/h 3.5 mph /  5.6 km/h 98 % 0.00 in /  0 mm
07:44 72.2 °F /  22.3 °C 71.6 °F /  22 °C 29.84 in /  1010.4 hPa SSW 3.4 mph /  5.5 km/h 6.0 mph /  9.7 km/h 98 % 0.00 in /  0 mm
07:49 72.2 °F /  22.3 °C 71.6 °F /  22 °C 29.84 in /  1010.4 hPa West 0.5 mph /  0.8 km/h 2.3 mph /  3.7 km/h 98 % 0.00 in /  0 mm
07:54 72.3 °F /  22.4 °C 71.7 °F /  22.1 °C 29.84 in /  1010.4 hPa South 0.7 mph /  1.1 km/h 3.5 mph /  5.6 km/h 98 % 0.00 in /  0 mm
07:59 72.4 °F /  22.4 °C 71.8 °F /  22.1 °C 29.84 in /  1010.4 hPa WNW 1.2 mph /  1.9 km/h 6.9 mph /  11.1 km/h 98 % 0.00 in /  0 mm
08:04 72.5 °F /  22.5 °C 71.9 °F /  22.2 °C 29.84 in /  1010.4 hPa SW 1.6 mph /  2.6 km/h 6.9 mph /  11.1 km/h 98 % 0.00 in /  0 mm
08:09 72.6 °F /  22.6 °C 72.0 °F /  22.2 °C 29.83 in /  1010 hPa WSW 0.5 mph /  0.8 km/h 3.5 mph /  5.6 km/h 98 % 0.00 in /  0 mm
08:14 72.6 °F /  22.6 °C 72.0 °F /  22.2 °C 29.83 in /  1010 hPa WSW 1.5 mph /  2.4 km/h 3.5 mph /  5.6 km/h 98 % 0.00 in /  0 mm
08:19 72.7 °F /  22.6 °C 72.1 °F /  22.3 °C 29.83 in /  1010 hPa WSW 2.2 mph /  3.5 km/h 3.5 mph /  5.6 km/h 98 % 0.00 in /  0 mm
08:24 72.8 °F /  22.7 °C 72.2 °F /  22.3 °C 29.83 in /  1010 hPa WNW 1.7 mph /  2.7 km/h 6.9 mph /  11.1 km/h 98 % 0.00 in /  0 mm
08:29 72.9 °F /  22.7 °C 72.3 °F /  22.4 °C 29.84 in /  1010.4 hPa WSW 1.5 mph /  2.4 km/h 4.0 mph /  6.4 km/h 98 % 0.00 in /  0 mm
08:35 73.0 °F /  22.8 °C 72.4 °F /  22.4 °C 29.83 in /  1010 hPa SW 4.7 mph /  7.6 km/h 6.9 mph /  11.1 km/h 98 % 0.00 in /  0 mm
08:40 73.2 °F /  22.9 °C 72.6 °F /  22.6 °C 29.83 in /  1010 hPa WNW 1.9 mph /  3.1 km/h 4.0 mph /  6.4 km/h 98 % 0.00 in /  0 mm
08:45 73.4 °F /  23 °C 72.8 °F /  22.7 °C 29.84 in /  1010.4 hPa WSW 2.4 mph /  3.9 km/h 6.0 mph /  9.7 km/h 98 % 0.00 in /  0 mm
08:50 73.5 °F /  23.1 °C 72.6 °F /  22.6 °C 29.83 in /  1010 hPa West 2.3 mph /  3.7 km/h 5.8 mph /  9.3 km/h 97 % 0.00 in /  0 mm
08:55 73.5 °F /  23.1 °C 72.6 °F /  22.6 °C 29.83 in /  1010 hPa SW 3.8 mph /  6.1 km/h 11.5 mph /  18.5 km/h 97 % 0.00 in /  0 mm
09:00 73.5 °F /  23.1 °C 72.3 °F /  22.4 °C 29.83 in /  1010 hPa WNW 4.6 mph /  7.4 km/h 6.9 mph /  11.1 km/h 96 % 0.00 in /  0 mm
09:05 73.6 °F /  23.1 °C 72.4 °F /  22.4 °C 29.83 in /  1010 hPa WSW 2.9 mph /  4.7 km/h 5.8 mph /  9.3 km/h 96 % 0.00 in /  0 mm
09:10 73.7 °F /  23.2 °C 72.5 °F /  22.5 °C 29.84 in /  1010.4 hPa WSW 1.9 mph /  3.1 km/h 6.0 mph /  9.7 km/h 96 % 0.00 in /  0 mm
09:15 73.8 °F /  23.2 °C 72.3 °F /  22.4 °C 29.84 in /  1010.4 hPa SSW 4.5 mph /  7.2 km/h 9.2 mph /  14.8 km/h 95 % 0.00 in /  0 mm
09:20 73.8 °F /  23.2 °C 71.6 °F /  22 °C 29.84 in /  1010.4 hPa SW 3.7 mph /  6 km/h 6.9 mph /  11.1 km/h 93 % 0.00 in /  0 mm
09:25 73.9 °F /  23.3 °C 71.1 °F /  21.7 °C 29.84 in /  1010.4 hPa SSW 4.3 mph /  6.9 km/h 8.1 mph /  13 km/h 91 % 0.00 in /  0 mm
09:30 74.1 °F /  23.4 °C 71.3 °F /  21.8 °C 29.84 in /  1010.4 hPa SW 2.5 mph /  4 km/h 4.6 mph /  7.4 km/h 91 % 0.00 in /  0 mm
09:35 74.3 °F /  23.5 °C 70.5 °F /  21.4 °C 29.84 in /  1010.4 hPa SW 3.8 mph /  6.1 km/h 9.2 mph /  14.8 km/h 88 % 0.00 in /  0 mm
09:40 74.6 °F /  23.7 °C 69.8 °F /  21 °C 29.83 in /  1010 hPa SW 5.9 mph /  9.5 km/h 11.5 mph /  18.5 km/h 85 % 0.00 in /  0 mm
09:45 75.1 °F /  23.9 °C 70.3 °F /  21.3 °C 29.83 in /  1010 hPa WNW 6.0 mph /  9.7 km/h 10.4 mph /  16.7 km/h 85 % 0.00 in /  0 mm
09:50 75.8 °F /  24.3 °C 71.0 °F /  21.7 °C 29.84 in /  1010.4 hPa SW 2.5 mph /  4 km/h 4.0 mph /  6.4 km/h 85 % 0.00 in /  0 mm
09:55 76.5 °F /  24.7 °C 70.9 °F /  21.6 °C 29.84 in /  1010.4 hPa NW 5.3 mph /  8.5 km/h 9.2 mph /  14.8 km/h 83 % 0.00 in /  0 mm
10:00 77.2 °F /  25.1 °C 70.5 °F /  21.4 °C 29.83 in /  1010 hPa WNW 2.6 mph /  4.2 km/h 6.9 mph /  11.1 km/h 80 % 0.00 in /  0 mm
10:05 78.0 °F /  25.6 °C 70.2 °F /  21.2 °C 29.84 in /  1010.4 hPa WNW 3.3 mph /  5.3 km/h 6.9 mph /  11.1 km/h 77 % 0.00 in /  0 mm
10:10 78.7 °F /  25.9 °C 68.9 °F /  20.5 °C 29.84 in /  1010.4 hPa WSW 3.3 mph /  5.3 km/h 9.2 mph /  14.8 km/h 72 % 0.00 in /  0 mm
10:16 79.3 °F /  26.3 °C 69.1 °F /  20.6 °C 29.84 in /  1010.4 hPa WNW 5.4 mph /  8.7 km/h 7.0 mph /  11.3 km/h 71 % 0.00 in /  0 mm
10:21 79.8 °F /  26.6 °C 69.2 °F /  20.7 °C 29.84 in /  1010.4 hPa WSW 7.0 mph /  11.3 km/h 12.0 mph /  19.3 km/h 70 % 0.00 in /  0 mm
10:26 80.4 °F /  26.9 °C 69.7 °F /  20.9 °C 29.84 in /  1010.4 hPa West 7.0 mph /  11.3 km/h 14.0 mph /  22.5 km/h 70 % 0.00 in /  0 mm
10:31 80.9 °F /  27.2 °C 70.2 °F /  21.2 °C 29.85 in /  1010.7 hPa West 1.0 mph /  1.6 km/h 12.0 mph /  19.3 km/h 70 % 0.00 in /  0 mm
10:36 81.4 °F /  27.4 °C 68.5 °F /  20.3 °C 29.84 in /  1010.4 hPa SW 6.0 mph /  9.7 km/h 10.0 mph /  16.1 km/h 65 % 0.00 in /  0 mm
10:41 81.9 °F /  27.7 °C 68.5 °F /  20.3 °C 29.85 in /  1010.7 hPa SW 6.0 mph /  9.7 km/h 13.0 mph /  20.9 km/h 64 % 0.00 in /  0 mm
10:46 82.3 °F /  27.9 °C 68.4 °F /  20.2 °C 29.85 in /  1010.7 hPa SW 6.0 mph /  9.7 km/h 13.0 mph /  20.9 km/h 63 % 0.00 in /  0 mm
10:51 82.6 °F /  28.1 °C 68.3 °F /  20.2 °C 29.85 in /  1010.7 hPa SW 2.0 mph /  3.2 km/h 9.0 mph /  14.5 km/h 62 % 0.00 in /  0 mm
10:56 83.0 °F /  28.3 °C 67.7 °F /  19.8 °C 29.85 in /  1010.7 hPa SW 5.0 mph /  8 km/h 15.0 mph /  24.1 km/h 60 % 0.00 in /  0 mm
11:01 83.4 °F /  28.6 °C 68.5 °F /  20.3 °C 29.85 in /  1010.7 hPa West 2.3 mph /  3.7 km/h 5.8 mph /  9.3 km/h 61 % 0.00 in /  0 mm
11:06 83.7 °F /  28.7 °C 67.4 °F /  19.7 °C 29.85 in /  1010.7 hPa WSW 6.1 mph /  9.8 km/h 12.7 mph /  20.4 km/h 58 % 0.00 in /  0 mm
11:11 84.1 °F /  28.9 °C 67.7 °F /  19.8 °C 29.85 in /  1010.7 hPa WSW 3.0 mph /  4.8 km/h 10.0 mph /  16.1 km/h 58 % 0.00 in /  0 mm
11:16 84.4 °F /  29.1 °C 67.0 °F /  19.4 °C 29.85 in /  1010.7 hPa WSW 5.0 mph /  8 km/h 12.0 mph /  19.3 km/h 56 % 0.00 in /  0 mm
11:21 84.7 °F /  29.3 °C 67.8 °F /  19.9 °C 29.85 in /  1010.7 hPa WSW 5.0 mph /  8 km/h 12.0 mph /  19.3 km/h 57 % 0.00 in /  0 mm
11:26 84.9 °F /  29.4 °C 66.4 °F /  19.1 °C 29.85 in /  1010.7 hPa WSW 1.0 mph /  1.6 km/h 10.0 mph /  16.1 km/h 54 % 0.00 in /  0 mm
11:31 85.2 °F /  29.6 °C 66.7 °F /  19.3 °C 29.85 in /  1010.7 hPa WSW 6.0 mph /  9.7 km/h 12.0 mph /  19.3 km/h 54 % 0.00 in /  0 mm
11:36 85.3 °F /  29.6 °C 66.8 °F /  19.3 °C 29.86 in /  1011.1 hPa West 7.0 mph /  11.3 km/h 13.0 mph /  20.9 km/h 54 % 0.00 in /  0 mm
11:41 85.3 °F /  29.6 °C 65.7 °F /  18.7 °C 29.85 in /  1010.7 hPa SSW 5.6 mph /  9 km/h 8.1 mph /  13 km/h 52 % 0.00 in /  0 mm
11:46 85.3 °F /  29.6 °C 68.3 °F /  20.2 °C 29.85 in /  1010.7 hPa SW 2.2 mph /  3.5 km/h 11.5 mph /  18.5 km/h 57 % 0.00 in /  0 mm
11:51 85.6 °F /  29.8 °C 66.5 °F /  19.2 °C 29.85 in /  1010.7 hPa WSW 2.0 mph /  3.2 km/h 9.0 mph /  14.5 km/h 53 % 0.00 in /  0 mm
11:56 85.8 °F /  29.9 °C 66.1 °F /  18.9 °C 29.86 in /  1011.1 hPa WSW 6.0 mph /  9.7 km/h 10.0 mph /  16.1 km/h 52 % 0.00 in /  0 mm
11:57 85.8 °F /  29.9 °C 65.6 °F /  18.7 °C 29.86 in /  1011.1 hPa SSW 6.9 mph /  11.1 km/h 12.7 mph /  20.4 km/h 51 % 0.00 in /  0 mm
12:02 85.8 °F /  29.9 °C 66.7 °F /  19.3 °C 29.86 in /  1011.1 hPa WSW 2.7 mph /  4.3 km/h 8.1 mph /  13 km/h 53 % 0.00 in /  0 mm
12:07 85.7 °F /  29.8 °C 67.1 °F /  19.5 °C 29.86 in /  1011.1 hPa West 3.9 mph /  6.3 km/h 8.1 mph /  13 km/h 54 % 0.00 in /  0 mm
12:12 85.7 °F /  29.8 °C 66.0 °F /  18.9 °C 29.86 in /  1011.1 hPa SW 4.4 mph /  7.1 km/h 9.2 mph /  14.8 km/h 52 % 0.00 in /  0 mm
12:17 85.9 °F /  29.9 °C 66.8 °F /  19.3 °C 29.86 in /  1011.1 hPa WSW 4.2 mph /  6.8 km/h 6.9 mph /  11.1 km/h 53 % 0.00 in /  0 mm
12:22 86.0 °F /  30 °C 65.2 °F /  18.4 °C 29.86 in /  1011.1 hPa WSW 7.2 mph /  11.6 km/h 14.0 mph /  22.5 km/h 50 % 0.00 in /  0 mm
12:27 85.9 °F /  29.9 °C 65.1 °F /  18.4 °C 29.86 in /  1011.1 hPa WNW 3.7 mph /  6 km/h 11.5 mph /  18.5 km/h 50 % 0.00 in /  0 mm
12:32 86.0 °F /  30 °C 66.3 °F /  19.1 °C 29.86 in /  1011.1 hPa WSW 5.1 mph /  8.2 km/h 9.2 mph /  14.8 km/h 52 % 0.00 in /  0 mm
12:37 86.1 °F /  30.1 °C 67.0 °F /  19.4 °C 29.86 in /  1011.1 hPa WNW 2.0 mph /  3.2 km/h 5.8 mph /  9.3 km/h 53 % 0.00 in /  0 mm
12:42 86.5 °F /  30.3 °C 66.2 °F /  19 °C 29.86 in /  1011.1 hPa West 4.6 mph /  7.4 km/h 7.0 mph /  11.3 km/h 51 % 0.00 in /  0 mm
12:47 86.9 °F /  30.5 °C 64.2 °F /  17.9 °C 29.86 in /  1011.1 hPa WNW 1.8 mph /  2.9 km/h 6.0 mph /  9.7 km/h 47 % 0.00 in /  0 mm
12:53 87.1 °F /  30.6 °C 63.8 °F /  17.7 °C 29.85 in /  1010.7 hPa WNW 2.7 mph /  4.3 km/h 10.4 mph /  16.7 km/h 46 % 0.00 in /  0 mm
12:58 87.3 °F /  30.7 °C 64.0 °F /  17.8 °C 29.86 in /  1011.1 hPa SSW 1.5 mph /  2.4 km/h 8.1 mph /  13 km/h 46 % 0.00 in /  0 mm
13:03 87.6 °F /  30.9 °C 63.0 °F /  17.2 °C 29.85 in /  1010.7 hPa West 3.3 mph /  5.3 km/h 10.4 mph /  16.7 km/h 44 % 0.00 in /  0 mm
13:08 87.7 °F /  30.9 °C 66.2 °F /  19 °C 29.85 in /  1010.7 hPa West 6.2 mph /  10 km/h 11.5 mph /  18.5 km/h 49 % 0.00 in /  0 mm
13:13 87.8 °F /  31 °C 64.4 °F /  18 °C 29.85 in /  1010.7 hPa SW 5.0 mph /  8 km/h 10.4 mph /  16.7 km/h 46 % 0.00 in /  0 mm
13:18 87.8 °F /  31 °C 65.1 °F /  18.4 °C 29.85 in /  1010.7 hPa WSW 3.1 mph /  5 km/h 5.0 mph /  8 km/h 47 % 0.00 in /  0 mm
13:23 87.9 °F /  31.1 °C 62.6 °F /  17 °C 29.85 in /  1010.7 hPa WSW 6.1 mph /  9.8 km/h 9.2 mph /  14.8 km/h 43 % 0.00 in /  0 mm
13:28 88.0 °F /  31.1 °C 63.4 °F /  17.4 °C 29.85 in /  1010.7 hPa West 5.2 mph /  8.4 km/h 9.2 mph /  14.8 km/h 44 % 0.00 in /  0 mm
13:33 88.1 °F /  31.2 °C 64.7 °F /  18.2 °C 29.85 in /  1010.7 hPa SW 3.6 mph /  5.8 km/h 8.0 mph /  12.9 km/h 46 % 0.00 in /  0 mm
13:38 88.0 °F /  31.1 °C 62.0 °F /  16.7 °C 29.85 in /  1010.7 hPa SW 1.8 mph /  2.9 km/h 10.4 mph /  16.7 km/h 42 % 0.00 in /  0 mm
13:39 88.0 °F /  31.1 °C 63.4 °F /  17.4 °C 29.85 in /  1010.7 hPa WNW 2.1 mph /  3.4 km/h 10.4 mph /  16.7 km/h 44 % 0.00 in /  0 mm
13:43 88.0 °F /  31.1 °C 63.4 °F /  17.4 °C 29.85 in /  1010.7 hPa WSW 0.3 mph /  0.5 km/h 3.5 mph /  5.6 km/h 44 % 0.00 in /  0 mm
13:49 88.1 °F /  31.2 °C 63.4 °F /  17.4 °C 29.85 in /  1010.7 hPa South 2.8 mph /  4.5 km/h 5.0 mph /  8 km/h 44 % 0.00 in /  0 mm
13:54 88.3 °F /  31.3 °C 62.3 °F /  16.8 °C 29.84 in /  1010.4 hPa WSW 5.4 mph /  8.7 km/h 8.1 mph /  13 km/h 42 % 0.00 in /  0 mm
13:59 88.3 °F /  31.3 °C 63.0 °F /  17.2 °C 29.84 in /  1010.4 hPa SSW 4.6 mph /  7.4 km/h 10.4 mph /  16.7 km/h 43 % 0.00 in /  0 mm
14:04 88.4 °F /  31.3 °C 62.4 °F /  16.9 °C 29.84 in /  1010.4 hPa WSW 4.7 mph /  7.6 km/h 10.4 mph /  16.7 km/h 42 % 0.00 in /  0 mm
14:09 88.5 °F /  31.4 °C 62.5 °F /  16.9 °C 29.84 in /  1010.4 hPa West 3.4 mph /  5.5 km/h 9.2 mph /  14.8 km/h 42 % 0.00 in /  0 mm
14:14 88.4 °F /  31.3 °C 63.7 °F /  17.6 °C 29.84 in /  1010.4 hPa SSW 3.3 mph /  5.3 km/h 4.6 mph /  7.4 km/h 44 % 0.00 in /  0 mm
14:19 88.6 °F /  31.4 °C 63.2 °F /  17.3 °C 29.84 in /  1010.4 hPa WNW 1.1 mph /  1.8 km/h 8.1 mph /  13 km/h 43 % 0.00 in /  0 mm
14:24 88.7 °F /  31.5 °C 62.0 °F /  16.7 °C 29.84 in /  1010.4 hPa SSW 5.2 mph /  8.4 km/h 9.0 mph /  14.5 km/h 41 % 0.00 in /  0 mm
14:29 88.7 °F /  31.5 °C 63.3 °F /  17.4 °C 29.84 in /  1010.4 hPa WSW 4.1 mph /  6.6 km/h 9.0 mph /  14.5 km/h 43 % 0.00 in /  0 mm
14:34 88.8 °F /  31.6 °C 62.1 °F /  16.7 °C 29.84 in /  1010.4 hPa WSW 5.5 mph /  8.9 km/h 11.5 mph /  18.5 km/h 41 % 0.00 in /  0 mm
14:39 88.8 °F /  31.6 °C 62.7 °F /  17.1 °C 29.84 in /  1010.4 hPa NW 4.5 mph /  7.2 km/h 8.0 mph /  12.9 km/h 42 % 0.00 in /  0 mm
14:44 88.9 °F /  31.6 °C 66.1 °F /  18.9 °C 29.84 in /  1010.4 hPa West 4.0 mph /  6.4 km/h 8.1 mph /  13 km/h 47 % 0.00 in /  0 mm
14:49 89.0 °F /  31.7 °C 62.2 °F /  16.8 °C 29.84 in /  1010.4 hPa WSW 5.9 mph /  9.5 km/h 11.5 mph /  18.5 km/h 41 % 0.00 in /  0 mm
14:54 89.0 °F /  31.7 °C 64.3 °F /  17.9 °C 29.84 in /  1010.4 hPa WSW 3.2 mph /  5.1 km/h 6.9 mph /  11.1 km/h 44 % 0.00 in /  0 mm
14:59 89.0 °F /  31.7 °C 62.9 °F /  17.2 °C 29.84 in /  1010.4 hPa SW 4.5 mph /  7.2 km/h 11.5 mph /  18.5 km/h 42 % 0.00 in /  0 mm
15:04 88.8 °F /  31.6 °C 62.7 °F /  17.1 °C 29.84 in /  1010.4 hPa SW 4.6 mph /  7.4 km/h 8.1 mph /  13 km/h 42 % 0.00 in /  0 mm
15:09 88.7 °F /  31.5 °C 62.0 °F /  16.7 °C 29.84 in /  1010.4 hPa WNW 3.9 mph /  6.3 km/h 8.1 mph /  13 km/h 41 % 0.00 in /  0 mm
15:14 88.5 °F /  31.4 °C 63.1 °F /  17.3 °C 29.84 in /  1010.4 hPa West 3.8 mph /  6.1 km/h 9.2 mph /  14.8 km/h 43 % 0.00 in /  0 mm
15:19 88.5 °F /  31.4 °C 60.4 °F /  15.8 °C 29.84 in /  1010.4 hPa West 7.3 mph /  11.7 km/h 12.7 mph /  20.4 km/h 39 % 0.00 in /  0 mm
15:24 88.5 °F /  31.4 °C 61.1 °F /  16.2 °C 29.84 in /  1010.4 hPa SSW 5.5 mph /  8.9 km/h 6.9 mph /  11.1 km/h 40 % 0.00 in /  0 mm
15:29 88.6 °F /  31.4 °C 61.9 °F /  16.6 °C 29.84 in /  1010.4 hPa SW 3.4 mph /  5.5 km/h 9.2 mph /  14.8 km/h 41 % 0.00 in /  0 mm
15:34 88.7 °F /  31.5 °C 60.6 °F /  15.9 °C 29.84 in /  1010.4 hPa SW 7.5 mph /  12.1 km/h 10.4 mph /  16.7 km/h 39 % 0.00 in /  0 mm
15:39 88.6 °F /  31.4 °C 59.7 °F /  15.4 °C 29.84 in /  1010.4 hPa West 6.9 mph /  11.1 km/h 11.5 mph /  18.5 km/h 38 % 0.00 in /  0 mm
15:44 88.5 °F /  31.4 °C 61.1 °F /  16.2 °C 29.84 in /  1010.4 hPa NW 5.2 mph /  8.4 km/h 10.4 mph /  16.7 km/h 40 % 0.00 in /  0 mm
15:49 88.5 °F /  31.4 °C 59.7 °F /  15.4 °C 29.84 in /  1010.4 hPa SSW 6.6 mph /  10.6 km/h 6.9 mph /  11.1 km/h 38 % 0.00 in /  0 mm
15:54 88.5 °F /  31.4 °C 60.4 °F /  15.8 °C 29.84 in /  1010.4 hPa WNW 7.3 mph /  11.7 km/h 11.5 mph /  18.5 km/h 39 % 0.00 in /  0 mm
15:59 88.5 °F /  31.4 °C 60.4 °F /  15.8 °C 29.84 in /  1010.4 hPa WSW 4.2 mph /  6.8 km/h 6.9 mph /  11.1 km/h 39 % 0.00 in /  0 mm
16:04 88.5 °F /  31.4 °C 61.1 °F /  16.2 °C 29.84 in /  1010.4 hPa SW 5.3 mph /  8.5 km/h 8.1 mph /  13 km/h 40 % 0.00 in /  0 mm
16:09 88.7 °F /  31.5 °C 59.8 °F /  15.4 °C 29.84 in /  1010.4 hPa West 5.8 mph /  9.3 km/h 10.4 mph /  16.7 km/h 38 % 0.00 in /  0 mm
16:14 88.6 °F /  31.4 °C 59.0 °F /  15 °C 29.84 in /  1010.4 hPa SW 8.8 mph /  14.2 km/h 16.1 mph /  25.9 km/h 37 % 0.00 in /  0 mm
16:19 88.4 °F /  31.3 °C 58.1 °F /  14.5 °C 29.85 in /  1010.7 hPa WSW 6.7 mph /  10.8 km/h 16.1 mph /  25.9 km/h 36 % 0.00 in /  0 mm
16:25 87.8 °F /  31 °C 60.5 °F /  15.8 °C 29.85 in /  1010.7 hPa West 4.4 mph /  7.1 km/h 6.0 mph /  9.7 km/h 40 % 0.00 in /  0 mm
16:30 87.4 °F /  30.8 °C 59.4 °F /  15.2 °C 29.85 in /  1010.7 hPa SW 7.2 mph /  11.6 km/h 11.5 mph /  18.5 km/h 39 % 0.00 in /  0 mm
16:35 87.1 °F /  30.6 °C 59.8 °F /  15.4 °C 29.85 in /  1010.7 hPa WSW 8.4 mph /  13.5 km/h 16.1 mph /  25.9 km/h 40 % 0.00 in /  0 mm
16:40 86.9 °F /  30.5 °C 59.0 °F /  15 °C 29.85 in /  1010.7 hPa WSW 6.1 mph /  9.8 km/h 11.5 mph /  18.5 km/h 39 % 0.00 in /  0 mm
16:45 86.7 °F /  30.4 °C 60.2 °F /  15.7 °C 29.85 in /  1010.7 hPa WNW 3.0 mph /  4.8 km/h 4.6 mph /  7.4 km/h 41 % 0.00 in /  0 mm
16:50 86.7 °F /  30.4 °C 59.5 °F /  15.3 °C 29.85 in /  1010.7 hPa WNW 4.8 mph /  7.7 km/h 8.0 mph /  12.9 km/h 40 % 0.00 in /  0 mm
16:55 86.6 °F /  30.3 °C 59.4 °F /  15.2 °C 29.85 in /  1010.7 hPa SSW 2.7 mph /  4.3 km/h 9.2 mph /  14.8 km/h 40 % 0.00 in /  0 mm
17:00 86.5 °F /  30.3 °C 59.3 °F /  15.2 °C 29.85 in /  1010.7 hPa SW 4.5 mph /  7.2 km/h 10.0 mph /  16.1 km/h 40 % 0.00 in /  0 mm
17:05 86.5 °F /  30.3 °C 58.6 °F /  14.8 °C 29.85 in /  1010.7 hPa SW 8.5 mph /  13.7 km/h 15.0 mph /  24.1 km/h 39 % 0.00 in /  0 mm
17:10 86.2 °F /  30.1 °C 59.0 °F /  15 °C 29.85 in /  1010.7 hPa WSW 4.0 mph /  6.4 km/h 8.0 mph /  12.9 km/h 40 % 0.00 in /  0 mm
17:15 85.9 °F /  29.9 °C 58.8 °F /  14.9 °C 29.85 in /  1010.7 hPa SSW 2.1 mph /  3.4 km/h 8.1 mph /  13 km/h 40 % 0.00 in /  0 mm
17:21 85.7 °F /  29.8 °C 59.3 °F /  15.2 °C 29.85 in /  1010.7 hPa WSW 2.2 mph /  3.5 km/h 11.0 mph /  17.7 km/h 41 % 0.00 in /  0 mm
17:26 85.5 °F /  29.7 °C 57.7 °F /  14.3 °C 29.85 in /  1010.7 hPa SW 7.0 mph /  11.3 km/h 14.0 mph /  22.5 km/h 39 % 0.00 in /  0 mm
17:32 85.0 °F /  29.4 °C 58.0 °F /  14.4 °C 29.85 in /  1010.7 hPa WNW 7.5 mph /  12.1 km/h 11.5 mph /  18.5 km/h 40 % 0.00 in /  0 mm
17:37 84.8 °F /  29.3 °C 58.5 °F /  14.7 °C 29.85 in /  1010.7 hPa West 2.2 mph /  3.5 km/h 9.2 mph /  14.8 km/h 41 % 0.00 in /  0 mm
17:42 84.6 °F /  29.2 °C 58.3 °F /  14.6 °C 29.85 in /  1010.7 hPa West 5.9 mph /  9.5 km/h 10.4 mph /  16.7 km/h 41 % 0.00 in /  0 mm
17:47 84.4 °F /  29.1 °C 58.1 °F /  14.5 °C 29.85 in /  1010.7 hPa SW 5.1 mph /  8.2 km/h 13.8 mph /  22.2 km/h 41 % 0.00 in /  0 mm
17:52 84.1 °F /  28.9 °C 57.9 °F /  14.4 °C 29.85 in /  1010.7 hPa SW 8.7 mph /  14 km/h 16.1 mph /  25.9 km/h 41 % 0.00 in /  0 mm
17:57 83.8 °F /  28.8 °C 57.6 °F /  14.2 °C 29.85 in /  1010.7 hPa WSW 7.6 mph /  12.2 km/h 12.7 mph /  20.4 km/h 41 % 0.00 in /  0 mm
18:02 83.6 °F /  28.7 °C 58.1 °F /  14.5 °C 29.86 in /  1011.1 hPa SSW 5.7 mph /  9.2 km/h 12.7 mph /  20.4 km/h 42 % 0.00 in /  0 mm
18:07 83.4 °F /  28.6 °C 57.9 °F /  14.4 °C 29.85 in /  1010.7 hPa SSE 3.9 mph /  6.3 km/h 6.9 mph /  11.1 km/h 42 % 0.00 in /  0 mm
18:12 83.3 °F /  28.5 °C 57.1 °F /  13.9 °C 29.86 in /  1011.1 hPa SW 5.1 mph /  8.2 km/h 12.7 mph /  20.4 km/h 41 % 0.00 in /  0 mm
18:17 83.1 °F /  28.4 °C 57.0 °F /  13.9 °C 29.86 in /  1011.1 hPa SW 6.6 mph /  10.6 km/h 11.5 mph /  18.5 km/h 41 % 0.00 in /  0 mm
18:22 83.0 °F /  28.3 °C 57.5 °F /  14.2 °C 29.86 in /  1011.1 hPa WSW 5.3 mph /  8.5 km/h 8.0 mph /  12.9 km/h 42 % 0.00 in /  0 mm
18:27 82.8 °F /  28.2 °C 58.7 °F /  14.8 °C 29.86 in /  1011.1 hPa West 4.8 mph /  7.7 km/h 9.2 mph /  14.8 km/h 44 % 0.00 in /  0 mm
18:32 82.7 °F /  28.2 °C 57.9 °F /  14.4 °C 29.86 in /  1011.1 hPa SW 5.7 mph /  9.2 km/h 8.1 mph /  13 km/h 43 % 0.00 in /  0 mm
18:37 82.6 °F /  28.1 °C 58.5 °F /  14.7 °C 29.86 in /  1011.1 hPa SW 3.2 mph /  5.1 km/h 9.2 mph /  14.8 km/h 44 % 0.00 in /  0 mm
18:42 82.5 °F /  28.1 °C 58.4 °F /  14.7 °C 29.87 in /  1011.4 hPa SW 4.4 mph /  7.1 km/h 8.1 mph /  13 km/h 44 % 0.00 in /  0 mm
18:47 82.4 °F /  28 °C 57.7 °F /  14.3 °C 29.87 in /  1011.4 hPa SW 2.8 mph /  4.5 km/h 5.8 mph /  9.3 km/h 43 % 0.00 in /  0 mm
18:52 82.3 °F /  27.9 °C 58.2 °F /  14.6 °C 29.87 in /  1011.4 hPa WSW 3.4 mph /  5.5 km/h 6.9 mph /  11.1 km/h 44 % 0.00 in /  0 mm
18:57 82.1 °F /  27.8 °C 58.0 °F /  14.4 °C 29.88 in /  1011.7 hPa SW 3.3 mph /  5.3 km/h 6.9 mph /  11.1 km/h 44 % 0.00 in /  0 mm
19:02 81.9 °F /  27.7 °C 58.5 °F /  14.7 °C 29.87 in /  1011.4 hPa WNW 0.5 mph /  0.8 km/h 5.8 mph /  9.3 km/h 45 % 0.00 in /  0 mm
19:07 81.8 °F /  27.7 °C 58.4 °F /  14.7 °C 29.88 in /  1011.7 hPa West 1.7 mph /  2.7 km/h 8.1 mph /  13 km/h 45 % 0.00 in /  0 mm
19:12 81.6 °F /  27.6 °C 58.2 °F /  14.6 °C 29.88 in /  1011.7 hPa West 2.7 mph /  4.3 km/h 9.2 mph /  14.8 km/h 45 % 0.00 in /  0 mm
19:18 81.5 °F /  27.5 °C 58.7 °F /  14.8 °C 29.88 in /  1011.7 hPa WSW 2.2 mph /  3.5 km/h 6.0 mph /  9.7 km/h 46 % 0.00 in /  0 mm
19:23 81.4 °F /  27.4 °C 58.6 °F /  14.8 °C 29.88 in /  1011.7 hPa SW 1.9 mph /  3.1 km/h 6.0 mph /  9.7 km/h 46 % 0.00 in /  0 mm
19:28 81.2 °F /  27.3 °C 58.5 °F /  14.7 °C 29.88 in /  1011.7 hPa NW 1.0 mph /  1.6 km/h 5.8 mph /  9.3 km/h 46 % 0.00 in /  0 mm
19:33 81.1 °F /  27.3 °C 58.4 °F /  14.7 °C 29.88 in /  1011.7 hPa WSW 3.9 mph /  6.3 km/h 6.9 mph /  11.1 km/h 46 % 0.00 in /  0 mm
19:38 80.9 °F /  27.2 °C 58.2 °F /  14.6 °C 29.88 in /  1011.7 hPa SW 2.2 mph /  3.5 km/h 4.6 mph /  7.4 km/h 46 % 0.00 in /  0 mm
19:43 80.8 °F /  27.1 °C 58.1 °F /  14.5 °C 29.88 in /  1011.7 hPa West 2.2 mph /  3.5 km/h 4.6 mph /  7.4 km/h 46 % 0.00 in /  0 mm
19:48 80.6 °F /  27 °C 57.9 °F /  14.4 °C 29.88 in /  1011.7 hPa WSW 1.8 mph /  2.9 km/h 3.5 mph /  5.6 km/h 46 % 0.00 in /  0 mm
19:53 80.4 °F /  26.9 °C 58.3 °F /  14.6 °C 29.88 in /  1011.7 hPa WSW 0.5 mph /  0.8 km/h 2.3 mph /  3.7 km/h 47 % 0.00 in /  0 mm
19:58 80.2 °F /  26.8 °C 58.7 °F /  14.8 °C 29.89 in /  1012.1 hPa SW 0.8 mph /  1.3 km/h 3.5 mph /  5.6 km/h 48 % 0.00 in /  0 mm
20:03 80.0 °F /  26.7 °C 59.1 °F /  15.1 °C 29.89 in /  1012.1 hPa Calm   1.2 mph /  1.9 km/h 49 % 0.00 in /  0 mm
20:08 79.8 °F /  26.6 °C 59.5 °F /  15.3 °C 29.89 in /  1012.1 hPa Calm     50 % 0.00 in /  0 mm
20:13 79.4 °F /  26.3 °C 60.2 °F /  15.7 °C 29.89 in /  1012.1 hPa Calm     52 % 0.00 in /  0 mm
20:18 79.1 °F /  26.2 °C 60.0 °F /  15.6 °C 29.89 in /  1012.1 hPa WSW 0.1 mph /  0.2 km/h 1.2 mph /  1.9 km/h 52 % 0.00 in /  0 mm
20:23 78.7 °F /  25.9 °C 58.5 °F /  14.7 °C 29.89 in /  1012.1 hPa WSW 0.9 mph /  1.4 km/h 2.3 mph /  3.7 km/h 50 % 0.00 in /  0 mm
20:28 78.4 °F /  25.8 °C 58.8 °F /  14.9 °C 29.89 in /  1012.1 hPa Calm   1.2 mph /  1.9 km/h 51 % 0.00 in /  0 mm
20:33 78.0 °F /  25.6 °C 58.9 °F /  14.9 °C 29.89 in /  1012.1 hPa Calm     52 % 0.00 in /  0 mm
20:38 77.7 °F /  25.4 °C 58.7 °F /  14.8 °C 29.89 in /  1012.1 hPa WSW 0.2 mph /  0.3 km/h 1.2 mph /  1.9 km/h 52 % 0.00 in /  0 mm
20:44 77.4 °F /  25.2 °C 58.4 °F /  14.7 °C 29.89 in /  1012.1 hPa Calm     52 % 0.00 in /  0 mm
20:48 77.0 °F /  25 °C 58.6 °F /  14.8 °C 29.89 in /  1012.1 hPa Calm     53 % 0.00 in /  0 mm
20:54 76.6 °F /  24.8 °C 59.2 °F /  15.1 °C 29.89 in /  1012.1 hPa Calm   1.2 mph /  1.9 km/h 55 % 0.00 in /  0 mm
20:59 76.2 °F /  24.6 °C 59.4 °F /  15.2 °C 29.90 in /  1012.4 hPa Calm     56 % 0.00 in /  0 mm
21:04 75.8 °F /  24.3 °C 59.5 °F /  15.3 °C 29.90 in /  1012.4 hPa Calm     57 % 0.00 in /  0 mm
21:09 75.6 °F /  24.2 °C 59.8 °F /  15.4 °C 29.90 in /  1012.4 hPa Calm     58 % 0.00 in /  0 mm
21:14 75.2 °F /  24 °C 59.4 °F /  15.2 °C 29.90 in /  1012.4 hPa Calm     58 % 0.00 in /  0 mm
21:19 74.8 °F /  23.8 °C 59.0 °F /  15 °C 29.90 in /  1012.4 hPa Calm     58 % 0.00 in /  0 mm
21:24 74.5 °F /  23.6 °C 58.3 °F /  14.6 °C 29.90 in /  1012.4 hPa Calm     57 % 0.00 in /  0 mm
21:29 74.2 °F /  23.4 °C 58.5 °F /  14.7 °C 29.90 in /  1012.4 hPa Calm     58 % 0.00 in /  0 mm
21:34 73.8 °F /  23.2 °C 59.0 °F /  15 °C 29.90 in /  1012.4 hPa Calm     60 % 0.00 in /  0 mm
21:36 73.8 °F /  23.2 °C 59.0 °F /  15 °C 29.91 in /  1012.8 hPa Calm     60 % 0.00 in /  0 mm
21:41 73.5 °F /  23.1 °C 58.8 °F /  14.9 °C 29.90 in /  1012.4 hPa Calm     60 % 0.00 in /  0 mm
21:46 73.2 °F /  22.9 °C 58.9 °F /  14.9 °C 29.90 in /  1012.4 hPa Calm     61 % 0.00 in /  0 mm
21:51 72.9 °F /  22.7 °C 59.1 °F /  15.1 °C 29.90 in /  1012.4 hPa Calm     62 % 0.00 in /  0 mm
21:56 72.6 °F /  22.6 °C 58.8 °F /  14.9 °C 29.91 in /  1012.8 hPa Calm     62 % 0.00 in /  0 mm
22:01 72.4 °F /  22.4 °C 59.1 °F /  15.1 °C 29.91 in /  1012.8 hPa Calm   1.2 mph /  1.9 km/h 63 % 0.00 in /  0 mm
22:06 72.2 °F /  22.3 °C 59.3 °F /  15.2 °C 29.91 in /  1012.8 hPa Calm   1.0 mph /  1.6 km/h 64 % 0.00 in /  0 mm
22:11 71.9 °F /  22.2 °C 59.1 °F /  15.1 °C 29.91 in /  1012.8 hPa Calm   1.2 mph /  1.9 km/h 64 % 0.00 in /  0 mm
22:14 71.8 °F /  22.1 °C 59.4 °F /  15.2 °C 29.90 in /  1012.4 hPa Calm   2.3 mph /  3.7 km/h 65 % 0.00 in /  0 mm
22:19 71.7 °F /  22.1 °C 59.7 °F /  15.4 °C 29.91 in /  1012.8 hPa Calm     66 % 0.00 in /  0 mm
22:24 71.5 °F /  21.9 °C 60.4 °F /  15.8 °C 29.91 in /  1012.8 hPa Calm   1.2 mph /  1.9 km/h 68 % 0.00 in /  0 mm
22:29 71.3 °F /  21.8 °C 60.6 °F /  15.9 °C 29.91 in /  1012.8 hPa WSW 0.1 mph /  0.2 km/h 1.2 mph /  1.9 km/h 69 % 0.00 in /  0 mm
22:34 71.2 °F /  21.8 °C 60.5 °F /  15.8 °C 29.90 in /  1012.4 hPa Calm     69 % 0.00 in /  0 mm
22:39 71.0 °F /  21.7 °C 60.7 °F /  15.9 °C 29.91 in /  1012.8 hPa Calm     70 % 0.00 in /  0 mm
22:44 70.8 °F /  21.6 °C 60.9 °F /  16.1 °C 29.90 in /  1012.4 hPa Calm     71 % 0.00 in /  0 mm
22:49 70.6 °F /  21.4 °C 61.1 °F /  16.2 °C 29.90 in /  1012.4 hPa WSW 0.6 mph /  1 km/h 2.3 mph /  3.7 km/h 72 % 0.00 in /  0 mm
22:54 70.5 °F /  21.4 °C 61.4 °F /  16.3 °C 29.91 in /  1012.8 hPa Calm     73 % 0.00 in /  0 mm
22:59 70.3 °F /  21.3 °C 61.2 °F /  16.2 °C 29.90 in /  1012.4 hPa Calm   1.2 mph /  1.9 km/h 73 % 0.00 in /  0 mm
23:04 70.2 °F /  21.2 °C 61.5 °F /  16.4 °C 29.91 in /  1012.8 hPa Calm     74 % 0.00 in /  0 mm
23:09 70.1 °F /  21.2 °C 61.4 °F /  16.3 °C 29.90 in /  1012.4 hPa Calm     74 % 0.00 in /  0 mm
23:14 69.9 °F /  21.1 °C 61.6 °F /  16.4 °C 29.90 in /  1012.4 hPa Calm     75 % 0.00 in /  0 mm
23:19 69.8 °F /  21 °C 61.9 °F /  16.6 °C 29.91 in /  1012.8 hPa Calm     76 % 0.00 in /  0 mm
23:24 69.7 °F /  20.9 °C 61.8 °F /  16.6 °C 29.91 in /  1012.8 hPa Calm     76 % 0.00 in /  0 mm
23:29 69.6 °F /  20.9 °C 62.1 °F /  16.7 °C 29.91 in /  1012.8 hPa Calm   1.0 mph /  1.6 km/h 77 % 0.00 in /  0 mm
23:34 69.5 °F /  20.8 °C 62.0 °F /  16.7 °C 29.90 in /  1012.4 hPa WSW 0.1 mph /  0.2 km/h 1.2 mph /  1.9 km/h 77 % 0.00 in /  0 mm
23:39 69.4 °F /  20.8 °C 61.9 °F /  16.6 °C 29.90 in /  1012.4 hPa WSW 0.6 mph /  1 km/h 3.5 mph /  5.6 km/h 77 % 0.00 in /  0 mm
23:44 69.4 °F /  20.8 °C 61.9 °F /  16.6 °C 29.90 in /  1012.4 hPa SSW 0.3 mph /  0.5 km/h 2.3 mph /  3.7 km/h 77 % 0.00 in /  0 mm
23:49 69.4 °F /  20.8 °C 62.2 °F /  16.8 °C 29.90 in /  1012.4 hPa WSW 1.3 mph /  2.1 km/h 3.5 mph /  5.6 km/h 78 % 0.00 in /  0 mm
23:54 69.5 °F /  20.8 °C 62.3 °F /  16.8 °C 29.90 in /  1012.4 hPa SW 1.4 mph /  2.3 km/h 3.5 mph /  5.6 km/h 78 % 0.00 in /  0 mm
23:59 69.6 °F /  20.9 °C 62.4 °F /  16.9 °C 29.90 in /  1012.4 hPa SSW 1.7 mph /  2.7 km/h 3.5 mph /  5.6 km/h 78 % 0.00 in /  0 mm
Crab Meadow Weather
Compliments of Weather Underground - 3 mb

Script developed by  Jim McMurry - jmcmurry@mwt.net Adapted for the template by  Wim van der Kuil - Leuven-Template.eu

Weather Terms: Severe Local Storms - These are short-fused, small scale hazardous weather or hydrologic events produced by thunderstorms, including large hail, damaging winds, tornadoes, and flash floods.